aviador You're here:

KJAC Decoded Metar

JACKSON in WY, USA
Report Time2018-04-22 13:56:00
UTC Time2018-04-22 14:31:38
Flight Rules vfr VFR
WindCalm
Visibility9999 m
Phenomena:N/A
Clouds:N/A
Expected CloudBase > 1,600 ft AGL from Temp-Dew spread
CeilingNone
Temp01°C (ISA -1)
Dew Point-3°C (75% RH)
AAT-1.4°C
QNH1024 hPa
Density Alt5,997 ft
Elevation6,434 ft
Report Wrong Elevation
Raw Report
KJAC 221356Z 00000KT 10SM CLR 01/M03 A3023 RMK AO2 SLP230
T00111033=

Extra information for KJAC:More info

Metar Taf Metar & Taf Last 4 Metars F.Rules Stats Wind Profile Meteogram Temp Stats Airport Information Weather charts Add Link Nearby VenuesMetar ALERT Operation Metar Decoded Social comments

AIRNAV info for KJAC